createdAt,value
2018-02-06T00:00:01.129Z,32.58
2018-02-06T00:02:28.588Z,29.15
2018-02-06T00:04:56.056Z,29.30
2018-02-06T00:07:23.522Z,31.40
2018-02-06T00:09:51.024Z,30.00
2018-02-06T00:12:19.284Z,31.52
2018-02-06T00:14:46.750Z,29.12
2018-02-06T00:17:14.317Z,28.45
2018-02-06T00:19:41.907Z,25.15
2018-02-06T00:22:09.460Z,25.08
2018-02-06T00:24:36.980Z,29.50
2018-02-06T00:27:04.445Z,29.37
2018-02-06T00:29:32.693Z,26.98
2018-02-06T00:32:00.168Z,28.58
2018-02-06T00:34:27.636Z,25.60
2018-02-06T00:36:55.112Z,27.20
2018-02-06T00:39:22.580Z,25.43
2018-02-06T00:41:50.060Z,24.73
2018-02-06T00:44:17.712Z,26.08
2018-02-06T00:46:45.184Z,26.40
2018-02-06T00:49:12.765Z,27.73
2018-02-06T00:51:40.248Z,28.80
2018-02-06T00:54:07.713Z,25.08
2018-02-06T00:56:35.268Z,27.60
2018-02-06T00:59:02.832Z,25.90
2018-02-06T01:01:30.304Z,26.87
2018-02-06T01:03:57.823Z,25.92
2018-02-06T01:06:26.064Z,27.02
2018-02-06T01:08:53.644Z,27.25
2018-02-06T01:11:21.108Z,26.42
2018-02-06T01:13:48.583Z,22.85
2018-02-06T01:16:16.053Z,27.27
2018-02-06T01:18:43.624Z,30.80
2018-02-06T01:21:11.192Z,29.37
2018-02-06T01:23:38.672Z,25.50
2018-02-06T01:26:06.169Z,29.45
2018-02-06T01:28:34.440Z,26.02
2018-02-06T01:31:02.679Z,26.08
2018-02-06T01:33:30.176Z,29.37
2018-02-06T01:35:57.656Z,28.12
2018-02-06T01:38:25.117Z,26.67
2018-02-06T01:40:52.604Z,26.73
2018-02-06T01:43:20.873Z,31.08
2018-02-06T01:45:48.440Z,28.35
2018-02-06T01:48:16.012Z,32.70
2018-02-06T01:50:43.488Z,25.50
2018-02-06T01:53:11.059Z,27.00
2018-02-06T01:55:38.540Z,26.60
2018-02-06T01:58:06.202Z,27.80
2018-02-06T02:00:33.776Z,32.75
2018-02-06T02:03:01.269Z,30.30
2018-02-06T02:05:29.500Z,29.90
2018-02-06T02:07:56.976Z,32.70
2018-02-06T02:10:24.568Z,32.70
2018-02-06T02:12:52.032Z,31.92
2018-02-06T02:15:19.512Z,32.25
2018-02-06T02:17:47.000Z,29.15
2018-02-06T02:20:14.463Z,31.48
2018-02-06T02:22:42.029Z,31.43
2018-02-06T02:25:09.508Z,29.65
2018-02-06T02:27:37.088Z,30.35
2018-02-06T02:30:05.354Z,29.83
2018-02-06T02:32:32.916Z,29.67
2018-02-06T02:35:00.495Z,33.50
2018-02-06T02:37:27.964Z,32.60
2018-02-06T02:39:55.426Z,31.90
2018-02-06T04:40:28.599Z,39.47
2018-02-06T04:42:56.065Z,33.33
2018-02-06T04:45:23.547Z,34.15
2018-02-06T04:47:51.111Z,34.45
2018-02-06T04:50:18.613Z,36.87
2018-02-06T04:52:46.840Z,35.85
2018-02-06T04:55:14.308Z,33.67
2018-02-06T04:57:41.816Z,35.35
2018-02-06T05:00:09.276Z,38.13
2018-02-06T05:02:36.775Z,35.78
2018-02-06T05:05:05.148Z,35.10
2018-02-06T05:07:32.615Z,35.55
2018-02-06T05:10:00.081Z,33.77
2018-02-06T05:12:27.564Z,37.35
2018-02-06T05:14:55.132Z,39.42
2018-02-06T05:17:22.711Z,33.10
2018-02-06T05:19:50.179Z,34.55
2018-02-06T05:22:17.768Z,34.30
2018-02-06T05:24:46.029Z,30.57
2018-02-06T05:27:13.498Z,35.45
2018-02-06T05:29:40.973Z,33.90
2018-02-06T05:32:08.586Z,34.35
2018-02-06T05:34:36.874Z,35.10
2018-02-06T05:37:04.409Z,31.60
2018-02-06T05:39:31.964Z,35.00
2018-02-06T05:41:59.440Z,38.25
2018-02-06T05:44:27.116Z,36.72
2018-02-06T05:46:54.580Z,33.38
2018-02-06T05:49:22.056Z,34.47
2018-02-06T05:51:49.524Z,33.50
2018-02-06T05:54:17.005Z,34.85
2018-02-06T05:56:44.561Z,34.47
2018-02-06T05:59:12.037Z,34.00
2018-02-06T06:01:39.603Z,34.83
2018-02-06T06:04:07.172Z,32.15
2018-02-06T06:06:34.636Z,32.97
2018-02-06T06:09:02.227Z,39.10
2018-02-06T06:11:29.712Z,35.10
2018-02-06T06:13:57.944Z,32.40
2018-02-06T06:16:25.439Z,34.93
2018-02-06T06:18:52.929Z,34.75
2018-02-06T06:21:20.480Z,34.88
2018-02-06T06:23:48.056Z,35.08
2018-02-06T06:26:15.627Z,33.10
2018-02-06T06:28:43.108Z,32.85
2018-02-06T06:31:10.668Z,31.77
2018-02-06T06:33:38.240Z,31.75
2018-02-06T06:36:05.712Z,33.03
2018-02-06T06:38:33.180Z,35.83
2018-02-06T06:41:00.756Z,33.03
2018-02-06T06:43:28.225Z,35.22
2018-02-06T06:45:55.700Z,35.28
2018-02-06T06:48:23.179Z,39.00
2018-02-06T06:50:50.732Z,30.85
2018-02-06T06:53:18.207Z,33.20
2018-02-06T06:55:45.680Z,39.60
2018-02-06T06:58:13.248Z,32.67
2018-02-06T07:00:41.584Z,35.03
2018-02-06T07:03:09.105Z,31.37
2018-02-06T07:05:36.676Z,34.08
2018-02-06T07:08:04.140Z,32.33
2018-02-06T07:10:33.131Z,34.25
2018-02-06T07:13:00.620Z,33.38
2018-02-06T07:15:28.089Z,28.60
2018-02-06T07:17:55.554Z,31.87
2018-02-06T07:20:23.220Z,32.72
2018-02-06T07:22:50.688Z,32.67
2018-02-06T07:25:18.216Z,28.87
2018-02-06T07:27:46.473Z,31.60
2018-02-06T07:30:13.932Z,32.42
2018-02-06T07:32:41.408Z,35.30
2018-02-06T07:35:08.876Z,32.05
2018-02-06T07:37:36.350Z,34.97
2018-02-06T07:40:03.832Z,32.92
2018-02-06T07:42:32.068Z,30.90
2018-02-06T07:44:59.560Z,33.03
2018-02-06T07:47:27.144Z,29.00
2018-02-06T07:49:54.604Z,30.30
2018-02-06T07:52:22.176Z,36.58
2018-02-06T07:54:49.755Z,36.97
2018-02-06T07:57:17.228Z,32.40
2018-02-06T07:59:44.756Z,37.13
2018-02-06T08:02:12.407Z,35.10
2018-02-06T08:04:40.632Z,36.25
2018-02-06T08:07:08.216Z,43.97
2018-02-06T08:09:35.680Z,45.47
2018-02-06T08:12:03.198Z,41.88
2018-02-06T08:14:30.728Z,36.83
2018-02-06T08:16:58.348Z,36.42
2018-02-06T08:19:26.600Z,32.45
2018-02-06T08:21:54.260Z,32.88
2018-02-06T08:24:21.728Z,34.60
2018-02-06T08:26:49.204Z,32.20
2018-02-06T08:29:16.777Z,28.65
2018-02-06T08:31:44.243Z,39.30
2018-02-06T08:34:11.729Z,30.95
2018-02-06T08:36:39.303Z,32.45
2018-02-06T08:39:07.572Z,27.55
2018-02-06T08:41:35.052Z,28.30
2018-02-06T08:44:02.517Z,30.37
2018-02-06T08:46:29.998Z,29.30
2018-02-06T08:48:57.494Z,28.45
2018-02-06T08:51:25.739Z,28.58
2018-02-06T08:53:53.209Z,28.77
2018-02-06T08:56:20.784Z,28.55
2018-02-06T08:58:48.256Z,29.63
2018-02-06T09:01:15.720Z,29.85
2018-02-06T09:03:43.210Z,25.02
2018-02-06T09:06:10.681Z,26.23
2018-02-06T09:08:38.239Z,26.95
2018-02-06T09:11:05.707Z,26.55
2018-02-06T09:13:33.272Z,28.83
2018-02-06T09:16:00.855Z,28.20
2018-02-06T09:18:28.318Z,24.25
2018-02-06T09:20:55.788Z,25.60
2018-02-06T09:23:23.260Z,27.15
2018-02-06T09:25:50.726Z,26.48
2018-02-06T09:28:18.214Z,26.75
2018-02-06T09:30:45.762Z,24.48
2018-02-06T09:33:13.223Z,24.10
2018-02-06T09:35:40.808Z,25.13
2018-02-06T09:38:08.284Z,26.83
2018-02-06T09:40:35.745Z,25.48
2018-02-06T09:43:03.212Z,24.52
2018-02-06T09:45:30.877Z,24.20
2018-02-06T09:47:58.312Z,23.98
2018-02-06T09:50:25.780Z,25.65
2018-02-06T09:52:53.293Z,25.92
2018-02-06T09:55:20.916Z,25.48
2018-02-06T09:57:48.448Z,23.55
2018-02-06T10:00:16.004Z,24.87
2018-02-06T10:02:43.576Z,25.85
2018-02-06T10:05:11.099Z,25.48
2018-02-06T10:07:38.551Z,24.42
2018-02-06T10:10:06.812Z,26.58
2018-02-06T10:12:34.296Z,26.10
2018-02-06T10:15:01.952Z,30.12
2018-02-06T10:17:29.436Z,26.08
2018-02-06T10:19:56.894Z,25.37
2018-02-06T10:22:25.868Z,25.92
2018-02-06T10:24:53.357Z,25.08
2018-02-06T10:27:20.823Z,22.62
2018-02-06T10:29:48.298Z,24.63
2018-02-06T10:32:15.769Z,22.58
2018-02-06T10:34:43.224Z,24.27
2018-02-06T10:37:10.691Z,24.55
2018-02-06T10:39:38.155Z,24.00
2018-02-06T10:42:05.655Z,23.08
2018-02-06T10:44:33.224Z,26.83
2018-02-06T10:47:00.683Z,25.75
2018-02-06T10:49:28.257Z,23.52
2018-02-06T10:51:55.727Z,24.17
2018-02-06T10:54:23.187Z,25.10
2018-02-06T10:56:50.668Z,23.75
2018-02-06T10:59:18.134Z,24.00
2018-02-06T11:01:45.614Z,32.08
2018-02-06T11:04:13.179Z,22.85
2018-02-06T11:06:40.646Z,22.80
2018-02-06T11:09:08.123Z,22.33
2018-02-06T11:11:35.586Z,23.75
2018-02-06T11:14:03.040Z,25.50
2018-02-06T11:16:30.511Z,25.70
2018-02-06T11:18:57.988Z,25.77
2018-02-06T11:21:25.455Z,23.95
2018-02-06T11:23:52.917Z,22.53
2018-02-06T11:26:20.510Z,23.35
2018-02-06T11:28:48.175Z,24.23
2018-02-06T11:31:15.647Z,25.17
2018-02-06T11:33:43.112Z,26.92
2018-02-06T11:36:10.587Z,26.37
2018-02-06T11:38:38.067Z,24.50
2018-02-06T11:41:05.680Z,22.98
2018-02-06T11:43:33.923Z,24.83
2018-02-06T11:46:01.420Z,24.50
2018-02-06T11:48:29.652Z,21.52
2018-02-06T11:50:57.123Z,21.23
2018-02-06T11:53:24.600Z,23.77
2018-02-06T11:55:52.183Z,22.60
2018-02-06T11:58:19.655Z,20.70
2018-02-06T12:00:47.111Z,24.80
2018-02-06T12:03:14.691Z,22.27
2018-02-06T12:05:42.155Z,22.25
2018-02-06T12:08:09.610Z,23.20
2018-02-06T12:10:37.085Z,22.10
2018-02-06T12:13:04.540Z,23.67
2018-02-06T12:15:31.995Z,22.23
2018-02-06T12:17:59.454Z,21.67
2018-02-06T12:20:27.700Z,19.67
2018-02-06T12:22:55.155Z,24.00
2018-02-06T12:25:22.616Z,22.13
2018-02-06T12:27:50.105Z,21.90
2018-02-06T12:30:17.671Z,22.60
2018-02-06T12:32:45.151Z,20.23
2018-02-06T12:35:12.628Z,22.02
2018-02-06T12:37:40.192Z,23.90
2018-02-06T12:40:07.656Z,22.95
2018-02-06T12:42:35.226Z,21.45
2018-02-06T12:45:02.683Z,21.83
2018-02-06T12:47:30.135Z,20.55
2018-02-06T12:49:57.608Z,21.02
2018-02-06T12:52:25.071Z,20.60
2018-02-06T12:54:52.576Z,19.02
2018-02-06T12:57:20.151Z,20.10
2018-02-06T12:59:47.613Z,20.17
2018-02-06T13:02:15.069Z,19.33
2018-02-06T13:04:42.656Z,19.80
2018-02-06T13:07:10.182Z,20.25
2018-02-06T13:09:38.390Z,20.20
2018-02-06T13:12:05.891Z,19.75
2018-02-06T13:14:33.461Z,20.60
2018-02-06T13:17:01.127Z,20.92
2018-02-06T13:19:28.591Z,19.35
2018-02-06T13:21:56.083Z,19.12
2018-02-06T13:24:23.553Z,21.17
2018-02-06T13:26:51.107Z,20.52
2018-02-06T13:29:18.660Z,22.35
2018-02-06T13:31:46.150Z,21.42
2018-02-06T13:34:13.604Z,21.65
2018-02-06T13:36:41.067Z,21.83
2018-02-06T13:39:08.561Z,20.60
2018-02-06T13:41:36.189Z,21.05
2018-02-06T13:44:04.404Z,20.90
2018-02-06T13:46:31.883Z,22.08
2018-02-06T13:48:59.360Z,23.33
2018-02-06T13:51:26.828Z,21.40
2018-02-06T13:53:54.290Z,22.00
2018-02-06T13:56:21.756Z,21.02
2018-02-06T13:58:49.269Z,20.27
2018-02-06T14:01:17.500Z,24.92
2018-02-06T14:03:45.004Z,22.40
2018-02-06T14:06:12.581Z,21.10
2018-02-06T14:08:40.057Z,20.33
2018-02-06T14:11:07.624Z,20.88
2018-02-06T14:13:35.100Z,21.55
2018-02-06T14:16:02.567Z,21.62
2018-02-06T14:18:31.544Z,22.50
2018-02-06T14:20:59.180Z,22.08
2018-02-06T14:23:27.401Z,19.25
2018-02-06T14:25:54.888Z,20.92
2018-02-06T14:28:22.356Z,21.30
2018-02-06T14:30:49.816Z,18.95
2018-02-06T14:33:17.300Z,21.40
2018-02-06T14:35:44.764Z,22.58
2018-02-06T14:38:18.807Z,22.45
2018-02-06T14:40:46.272Z,20.95
2018-02-06T14:43:13.736Z,21.30
2018-02-06T14:45:41.196Z,21.67
2018-02-06T14:48:08.676Z,21.85
2018-02-06T14:50:36.252Z,20.92
2018-02-06T14:53:05.236Z,23.90
2018-02-06T14:55:32.696Z,20.92
2018-02-06T14:58:00.164Z,19.00
2018-02-06T15:00:27.678Z,21.25
2018-02-06T15:02:55.211Z,24.58
2018-02-06T15:05:22.753Z,20.25
2018-02-06T15:07:50.249Z,20.90
2018-02-06T15:10:17.709Z,19.70
2018-02-06T15:12:45.204Z,22.40
2018-02-06T15:15:12.784Z,21.20
2018-02-06T15:17:40.272Z,21.90
2018-02-06T15:20:08.529Z,20.20
2018-02-06T15:22:36.016Z,22.80
2018-02-06T15:25:03.473Z,19.33
2018-02-06T15:27:30.940Z,22.77
2018-02-06T15:29:58.412Z,23.33
2018-02-06T15:32:25.983Z,23.33
2018-02-06T15:34:53.544Z,23.30
2018-02-06T15:37:21.048Z,23.02
2018-02-06T15:39:48.600Z,24.73
2018-02-06T15:42:16.083Z,22.00
2018-02-06T15:44:43.548Z,19.77
2018-02-06T15:47:11.016Z,23.10
2018-02-06T15:49:38.483Z,26.33
2018-02-06T15:52:06.051Z,23.43
2018-02-06T15:54:33.539Z,26.23
2018-02-06T15:57:01.089Z,23.60
2018-02-06T15:59:28.570Z,25.65
2018-02-06T16:01:56.036Z,22.60
2018-02-06T16:04:23.500Z,27.25
2018-02-06T16:06:51.071Z,24.87
2018-02-06T16:09:18.552Z,24.63
2018-02-06T16:11:46.212Z,25.35
2018-02-06T16:14:13.676Z,25.12
2018-02-06T16:16:41.132Z,21.90
2018-02-06T16:19:08.622Z,24.85
2018-02-06T16:21:36.092Z,23.85
2018-02-06T16:24:03.567Z,19.85
2018-02-06T16:26:31.137Z,21.30
2018-02-06T16:28:58.703Z,25.42
2018-02-06T16:31:26.175Z,21.23
2018-02-06T16:33:53.748Z,19.73
2018-02-06T16:36:21.327Z,24.70
2018-02-06T16:38:48.796Z,26.67
2018-02-06T16:41:16.272Z,25.40
2018-02-06T16:43:43.831Z,22.83
2018-02-06T16:46:11.295Z,22.83
2018-02-06T16:48:38.876Z,22.70
2018-02-06T16:51:06.440Z,24.30
2018-02-06T16:53:33.918Z,23.17
2018-02-06T16:56:01.372Z,23.77
2018-02-06T16:58:28.856Z,25.70
2018-02-06T17:00:56.337Z,24.23
2018-02-06T17:03:23.893Z,25.20
2018-02-06T17:05:51.402Z,25.25
2018-02-06T17:08:19.623Z,22.62
2018-02-06T17:10:47.095Z,22.87
2018-02-06T17:13:14.571Z,22.85
2018-02-06T17:15:42.057Z,24.52
2018-02-06T17:18:09.525Z,26.70
2018-02-06T17:20:37.004Z,22.80
2018-02-06T17:23:04.482Z,22.45
2018-02-06T17:25:31.980Z,28.65
2018-02-06T17:27:59.432Z,90.07
2018-02-06T17:30:27.684Z,78.78
2018-02-06T17:32:55.148Z,31.45
2018-02-06T17:35:22.624Z,32.72
2018-02-06T17:37:50.212Z,32.17
2018-02-06T17:40:17.680Z,36.40
2018-02-06T17:42:45.141Z,31.35
2018-02-06T17:45:13.377Z,33.22
2018-02-06T17:47:40.828Z,31.75
2018-02-06T17:50:09.194Z,32.38
2018-02-06T17:52:36.756Z,29.60
2018-02-06T17:55:04.224Z,25.48
2018-02-06T17:57:31.692Z,25.83
2018-02-06T17:59:59.272Z,27.85
2018-02-06T18:02:26.831Z,23.52
2018-02-06T18:04:54.313Z,24.58
2018-02-06T18:07:21.878Z,23.20
2018-02-06T18:09:49.338Z,25.53
2018-02-06T18:12:16.816Z,22.17
2018-02-06T18:14:44.306Z,23.25
2018-02-06T18:17:11.768Z,22.25
2018-02-06T18:19:39.234Z,21.67
2018-02-06T18:22:06.700Z,22.83
2018-02-06T18:24:34.165Z,21.10
2018-02-06T18:27:01.732Z,24.85
2018-02-06T18:29:29.208Z,22.40
2018-02-06T18:31:56.685Z,23.33
2018-02-06T18:34:24.171Z,23.83
2018-02-06T18:36:51.720Z,27.13
2018-02-06T18:39:19.180Z,25.85
2018-02-06T18:41:46.786Z,26.02
2018-02-06T18:44:14.252Z,31.60
2018-02-06T18:46:41.924Z,27.25
2018-02-06T18:49:09.388Z,29.08
2018-02-06T18:51:36.868Z,29.92
2018-02-06T18:54:04.339Z,28.27
2018-02-06T18:56:31.823Z,28.60
2018-02-06T18:59:00.090Z,23.98
2018-02-06T19:01:27.578Z,26.83
2018-02-06T19:03:55.055Z,24.87
2018-02-06T19:06:23.452Z,24.12
2018-02-06T19:08:51.716Z,24.25
2018-02-06T19:11:19.201Z,24.87
2018-02-06T19:13:46.748Z,27.13
2018-02-06T19:16:14.216Z,31.12
2018-02-06T19:18:41.704Z,25.13
2018-02-06T19:21:09.271Z,26.60
2018-02-06T19:23:36.835Z,28.58
2018-02-06T19:26:04.400Z,26.00
2018-02-06T19:28:31.920Z,44.60
2018-02-06T19:31:00.162Z,30.65
2018-02-06T19:33:27.649Z,25.97
2018-02-06T19:35:55.213Z,27.25
2018-02-06T19:38:22.684Z,27.05
2018-02-06T19:40:50.187Z,29.25
2018-02-06T19:43:18.428Z,27.75
2018-02-06T19:45:45.889Z,29.02
2018-02-06T19:48:13.357Z,28.55
2018-02-06T19:50:40.830Z,28.87
2018-02-06T19:53:08.313Z,28.70
2018-02-06T19:55:35.772Z,30.05
2018-02-06T19:58:03.289Z,32.58
2018-02-06T20:00:31.523Z,31.25
2018-02-06T20:02:59.012Z,32.38
2018-02-06T20:05:26.480Z,29.73
2018-02-06T20:07:53.943Z,28.73
2018-02-06T20:10:21.512Z,30.17
2018-02-06T20:12:48.984Z,32.40
2018-02-06T20:15:16.448Z,31.48
2018-02-06T20:17:44.036Z,28.50
2018-02-06T20:20:11.520Z,29.20
2018-02-06T20:22:38.975Z,30.65
2018-02-06T20:25:06.439Z,30.23
2018-02-06T20:27:33.900Z,32.25
2018-02-06T20:30:01.563Z,31.30
2018-02-06T20:32:29.008Z,34.28
2018-02-06T20:34:56.488Z,32.28
2018-02-06T20:37:23.949Z,32.50
2018-02-06T20:39:51.464Z,35.97
2018-02-06T20:42:19.029Z,36.50
2018-02-06T20:44:46.496Z,32.15
2018-02-06T20:47:13.970Z,33.83
2018-02-06T20:49:41.452Z,37.33
2018-02-06T20:52:08.912Z,36.53
2018-02-06T20:54:36.404Z,30.48
2018-02-06T20:57:04.628Z,30.80
2018-02-06T20:59:32.100Z,30.10
2018-02-06T21:01:59.708Z,32.55
2018-02-06T21:04:27.284Z,34.53
2018-02-06T21:06:54.751Z,31.58
2018-02-06T21:09:23.756Z,29.55
2018-02-06T21:11:51.479Z,30.25
2018-02-06T21:14:18.937Z,30.95
2018-02-06T21:16:47.169Z,31.67
2018-02-06T21:19:14.640Z,29.33
2018-02-06T21:21:42.121Z,26.75
2018-02-06T21:24:09.696Z,28.10
2018-02-06T21:26:37.168Z,30.25
2018-02-06T21:29:04.744Z,29.83
2018-02-06T21:31:32.205Z,28.33
2018-02-06T21:33:59.671Z,28.98
2018-02-06T21:36:27.136Z,29.63
2018-02-06T21:38:54.663Z,27.15
2018-02-06T21:41:22.104Z,29.33
2018-02-06T21:43:49.569Z,30.17
2018-02-06T21:46:17.036Z,30.10
2018-02-06T21:48:44.596Z,27.55
2018-02-06T21:51:12.053Z,30.40
2018-02-06T21:53:39.637Z,27.75
2018-02-06T21:56:07.100Z,29.53
2018-02-06T21:58:34.576Z,28.67
2018-02-06T22:01:02.065Z,27.25
2018-02-06T22:03:29.528Z,31.17
2018-02-06T22:05:56.991Z,28.50
2018-02-06T22:08:24.456Z,28.77
2018-02-06T22:10:51.952Z,30.83
2018-02-06T22:13:20.184Z,27.42
2018-02-06T22:15:47.685Z,26.98
2018-02-06T22:18:15.252Z,28.53
2018-02-06T22:20:42.721Z,28.80
2018-02-06T22:23:10.202Z,33.08
2018-02-06T22:25:37.665Z,34.05
2018-02-06T22:28:05.232Z,29.90
2018-02-06T22:30:32.751Z,32.47
2018-02-06T22:33:00.976Z,31.42
2018-02-06T22:35:28.444Z,31.53
2018-02-06T22:37:55.942Z,31.77
2018-02-06T22:40:23.414Z,33.22
2018-02-06T22:42:50.896Z,32.47
2018-02-06T22:45:19.168Z,30.77
2018-02-06T22:47:46.712Z,32.72
2018-02-06T22:50:14.300Z,31.25
2018-02-06T22:52:41.793Z,31.23
2018-02-06T22:55:09.264Z,32.53
2018-02-06T22:57:37.540Z,34.42
2018-02-06T23:00:05.024Z,34.97
2018-02-06T23:02:33.388Z,33.03
2018-02-06T23:05:00.856Z,33.80
2018-02-06T23:07:28.428Z,33.63
2018-02-06T23:09:55.908Z,35.10
2018-02-06T23:12:23.484Z,35.30
2018-02-06T23:14:50.944Z,33.40
2018-02-06T23:17:18.521Z,34.80
2018-02-06T23:19:46.188Z,36.72
2018-02-06T23:22:13.657Z,36.28
2018-02-06T23:24:41.135Z,37.67
2018-02-06T23:27:08.596Z,35.90
2018-02-06T23:29:36.281Z,34.55
2018-02-06T23:32:03.857Z,36.63
2018-02-06T23:34:31.433Z,36.60
2018-02-06T23:36:58.912Z,35.75
2018-02-06T23:39:26.457Z,39.22
2018-02-06T23:41:54.028Z,36.08
2018-02-06T23:44:21.516Z,37.20
2018-02-06T23:46:49.172Z,38.25
2018-02-06T23:49:16.639Z,34.63
2018-02-06T23:51:44.116Z,36.85
2018-02-06T23:54:11.688Z,37.17
2018-02-06T23:56:39.156Z,37.75
2018-02-06T23:59:06.632Z,39.28
